Time;durP1;ratioP1;P1;durP2;ratioP2;P2;SDS_P1;SDS_P2;PMS_P1;PMS_P2;Temp;Humidity;BMP_temperature;BMP_pressure;BME280_temperature;BME280_humidity;BME280_pressure;Samples;Min_cycle;Max_cycle;Signal;HPM_P1;HPM_P2
2022/10/26 00:01:45;;;;;;;4.85;2.78;;;19.40;99.90;;;;;;4147607;28;20255;-74
2022/10/26 00:03:48;;;;;;;3.95;2.75;;;19.50;99.90;;;;;;4153609;28;21073;-74
2022/10/26 00:05:51;;;;;;;5.78;2.90;;;19.50;99.90;;;;;;4147140;28;20225;-73
2022/10/26 00:07:55;;;;;;;3.88;3.05;;;19.50;99.90;;;;;;4147371;28;20623;-73
2022/10/26 00:09:57;;;;;;;6.10;2.72;;;19.40;99.90;;;;;;4148690;28;20255;-73
2022/10/26 00:12:00;;;;;;;4.05;2.83;;;19.40;99.90;;;;;;4144424;28;20280;-73
2022/10/26 00:14:02;;;;;;;3.67;2.70;;;19.40;99.90;;;;;;4144397;28;20279;-74
2022/10/26 00:16:08;;;;;;;4.30;2.85;;;19.40;99.90;;;;;;4144613;28;20738;-73
2022/10/26 00:18:11;;;;;;;3.10;2.42;;;19.40;99.90;;;;;;4147530;28;20221;-73
2022/10/26 00:20:14;;;;;;;5.47;2.58;;;19.40;99.90;;;;;;4148077;28;20295;-73
2022/10/26 00:22:16;;;;;;;3.83;2.63;;;19.40;99.90;;;;;;4149121;28;20217;-73
2022/10/26 00:24:20;;;;;;;4.05;2.78;;;19.50;99.90;;;;;;4147440;28;20213;-74
2022/10/26 00:26:22;;;;;;;3.88;2.70;;;19.40;99.90;;;;;;4147398;28;20267;-74
2022/10/26 00:28:24;;;;;;;3.85;2.70;;;19.40;99.90;;;;;;4154633;28;20236;-73
2022/10/26 00:30:26;;;;;;;5.65;2.65;;;19.40;99.90;;;;;;4148255;28;20260;-73
2022/10/26 00:32:29;;;;;;;3.97;2.70;;;19.40;99.90;;;;;;4145745;28;20218;-73
2022/10/26 00:34:31;;;;;;;4.25;2.80;;;19.40;99.90;;;;;;4138977;28;20279;-73
2022/10/26 00:36:34;;;;;;;3.33;2.45;;;19.40;99.90;;;;;;4137984;28;20221;-73
2022/10/26 00:38:36;;;;;;;3.63;2.55;;;19.40;99.90;;;;;;4145644;28;20269;-73
2022/10/26 00:40:40;;;;;;;3.30;2.38;;;19.40;99.90;;;;;;4141017;28;20629;-73
2022/10/26 00:42:42;;;;;;;4.18;2.75;;;19.40;99.90;;;;;;4138272;28;20255;-73
2022/10/26 00:45:00;;;;;;;5.28;2.70;;;19.40;99.90;;;;;;4144760;28;20214;-73
2022/10/26 00:47:02;;;;;;;3.22;2.45;;;19.40;99.90;;;;;;4143797;28;20280;-74
2022/10/26 00:49:09;;;;;;;3.40;2.50;;;19.50;99.90;;;;;;4145914;28;20257;-73
2022/10/26 00:51:18;;;;;;;4.30;2.70;;;19.50;99.90;;;;;;4146879;28;20224;-74
2022/10/26 00:53:21;;;;;;;3.78;2.53;;;19.50;99.90;;;;;;4145803;28;20270;-73
2022/10/26 00:55:29;;;;;;;4.38;2.67;;;19.40;99.90;;;;;;4146506;28;20266;-73
2022/10/26 00:57:33;;;;;;;4.13;2.88;;;19.40;99.90;;;;;;4146958;28;20220;-73
2022/10/26 00:59:35;;;;;;;3.47;2.50;;;19.40;99.90;;;;;;4146171;28;20268;-73
2022/10/26 01:01:40;;;;;;;3.50;2.70;;;19.40;99.90;;;;;;4145554;28;20236;-73
2022/10/26 01:03:43;;;;;;;4.75;2.65;;;19.40;99.90;;;;;;4144903;28;20650;-73
2022/10/26 01:05:47;;;;;;;5.75;2.97;;;19.40;99.90;;;;;;4146153;28;20217;-73
2022/10/26 01:07:51;;;;;;;4.35;2.78;;;19.40;99.90;;;;;;4146429;28;20256;-73
2022/10/26 01:09:54;;;;;;;3.70;2.80;;;19.40;99.90;;;;;;4150640;28;20259;-73
2022/10/26 01:11:56;;;;;;;4.15;2.55;;;19.40;99.90;;;;;;4146937;28;20271;-73
2022/10/26 01:14:03;;;;;;;3.00;2.50;;;19.40;99.90;;;;;;4146876;28;20225;-73
2022/10/26 01:16:18;;;;;;;2.95;2.30;;;19.40;99.90;;;;;;4148600;28;20272;-73
2022/10/26 01:18:30;;;;;;;4.32;2.60;;;19.40;99.90;;;;;;4138417;28;20275;-74
2022/10/26 01:21:08;;;;;;;3.05;2.25;;;19.40;99.90;;;;;;4144003;28;20212;-74
2022/10/26 01:23:19;;;;;;;3.47;2.45;;;19.40;99.90;;;;;;4127721;28;20275;-74
2022/10/26 01:25:36;;;;;;;4.53;2.70;;;19.40;99.90;;;;;;4147097;28;21052;-74
2022/10/26 01:27:40;;;;;;;3.67;2.38;;;19.40;99.90;;;;;;4145304;28;20304;-74
2022/10/26 01:30:09;;;;;;;4.57;2.85;;;19.40;99.90;;;;;;4146445;28;20299;-74
2022/10/26 01:32:15;;;;;;;3.65;2.70;;;19.40;99.90;;;;;;4146355;28;20225;-74
2022/10/26 01:34:23;;;;;;;3.05;2.42;;;19.40;99.90;;;;;;4146199;28;20661;-74
2022/10/26 01:36:34;;;;;;;2.88;2.38;;;19.40;99.90;;;;;;4145317;28;20213;-75
2022/10/26 01:38:45;;;;;;;3.58;2.40;;;19.40;99.90;;;;;;4147680;28;20208;-74
2022/10/26 01:40:58;;;;;;;3.97;2.33;;;19.40;99.90;;;;;;4149569;28;20309;-74
2022/10/26 01:43:05;;;;;;;3.72;2.60;;;19.30;99.90;;;;;;4146293;28;20240;-74
2022/10/26 01:45:12;;;;;;;3.17;2.50;;;19.40;99.90;;;;;;4149390;28;20271;-75
2022/10/26 01:47:17;;;;;;;3.20;2.30;;;19.40;99.90;;;;;;4141556;28;20320;-75
2022/10/26 01:49:23;;;;;;;6.80;3.08;;;19.40;99.90;;;;;;4146362;28;20241;-74
2022/10/26 01:51:27;;;;;;;3.78;2.35;;;19.40;99.90;;;;;;4146562;28;20616;-75
2022/10/26 01:53:30;;;;;;;4.65;2.92;;;19.40;99.90;;;;;;4144852;28;20809;-74
2022/10/26 01:55:46;;;;;;;3.28;2.65;;;19.40;99.90;;;;;;4151449;28;20220;-74
2022/10/26 01:57:52;;;;;;;2.90;2.35;;;19.40;99.90;;;;;;4145668;28;20556;-74
2022/10/26 02:00:04;;;;;;;4.57;2.85;;;19.40;99.90;;;;;;4140396;28;20253;-74
2022/10/26 02:02:51;;;;;;;3.38;2.50;;;19.40;99.90;;;;;;4144779;28;20240;-75
2022/10/26 02:05:10;;;;;;;5.07;2.83;;;19.40;99.90;;;;;;4143805;28;20268;-74
2022/10/26 02:07:21;;;;;;;3.72;2.60;;;19.40;99.90;;;;;;4145423;28;20244;-74
2022/10/26 02:09:30;;;;;;;2.60;2.20;;;19.40;99.90;;;;;;4144417;28;20248;-74
2022/10/26 02:11:40;;;;;;;4.93;2.60;;;19.30;99.90;;;;;;4142207;28;20220;-74
2022/10/26 02:13:48;;;;;;;3.47;2.30;;;19.40;99.90;;;;;;4145311;28;20283;-74
2022/10/26 02:15:57;;;;;;;3.10;2.42;;;19.40;99.90;;;;;;4145041;28;20220;-74
2022/10/26 02:18:04;;;;;;;4.97;2.80;;;19.30;99.90;;;;;;4145389;28;20235;-74
2022/10/26 02:20:11;;;;;;;4.32;2.42;;;19.30;99.90;;;;;;4144389;28;20217;-74
2022/10/26 02:22:19;;;;;;;4.28;2.45;;;19.30;99.90;;;;;;4146559;28;20225;-74
2022/10/26 02:24:22;;;;;;;4.40;2.40;;;19.30;99.90;;;;;;4148419;28;20217;-74
2022/10/26 02:26:27;;;;;;;4.22;2.47;;;19.30;99.90;;;;;;4143938;28;20623;-74
2022/10/26 02:28:35;;;;;;;3.33;2.30;;;19.30;99.90;;;;;;4143947;28;20283;-74
2022/10/26 02:30:40;;;;;;;3.45;2.40;;;19.30;99.90;;;;;;4144242;28;20230;-74
2022/10/26 02:32:47;;;;;;;3.83;2.50;;;19.30;99.90;;;;;;4146124;28;20267;-74
2022/10/26 02:34:52;;;;;;;3.03;2.28;;;19.40;99.90;;;;;;4146855;28;20725;-74
2022/10/26 02:37:00;;;;;;;3.53;2.50;;;19.30;99.90;;;;;;4146036;28;20217;-74
2022/10/26 02:39:05;;;;;;;3.88;2.42;;;19.30;99.90;;;;;;4143597;28;20236;-74
2022/10/26 02:41:09;;;;;;;3.10;2.33;;;19.30;99.90;;;;;;4144491;28;20248;-74
2022/10/26 02:43:13;;;;;;;2.70;2.28;;;19.30;99.90;;;;;;4144306;28;20709;-74
2022/10/26 02:45:20;;;;;;;3.22;2.33;;;19.40;99.90;;;;;;4143415;28;20415;-74
2022/10/26 02:47:25;;;;;;;4.20;2.55;;;19.30;99.90;;;;;;4147398;28;20658;-74
2022/10/26 02:49:28;;;;;;;5.78;2.88;;;19.30;99.90;;;;;;4144128;28;20286;-74
2022/10/26 02:51:37;;;;;;;3.45;2.25;;;19.30;99.90;;;;;;4143988;28;20287;-74
2022/10/26 02:53:46;;;;;;;4.22;2.60;;;19.30;99.90;;;;;;4144047;28;20216;-74
2022/10/26 02:55:50;;;;;;;2.80;2.20;;;19.40;99.90;;;;;;4149955;28;20225;-74
2022/10/26 02:57:58;;;;;;;3.03;2.28;;;19.40;99.90;;;;;;4142807;28;20228;-74
2022/10/26 03:00:01;;;;;;;2.50;2.13;;;19.40;99.90;;;;;;4144079;28;20221;-73
2022/10/26 03:02:04;;;;;;;6.97;2.55;;;19.30;99.90;;;;;;4143120;28;20310;-74
2022/10/26 03:04:06;;;;;;;4.25;2.53;;;19.30;99.90;;;;;;4143844;28;20268;-74
2022/10/26 03:06:09;;;;;;;4.88;2.45;;;19.30;99.90;;;;;;4145641;28;20224;-75
2022/10/26 03:08:11;;;;;;;6.63;2.70;;;19.30;99.90;;;;;;4144367;28;20299;-74
2022/10/26 03:10:15;;;;;;;3.70;2.50;;;19.30;99.90;;;;;;4144075;28;20249;-74
2022/10/26 03:12:17;;;;;;;3.00;2.13;;;19.30;99.90;;;;;;4141874;28;20213;-75
2022/10/26 03:14:20;;;;;;;2.47;2.08;;;19.40;99.90;;;;;;4143859;28;20212;-74
2022/10/26 03:16:22;;;;;;;4.10;2.65;;;19.40;99.90;;;;;;4142910;28;20261;-74
2022/10/26 03:18:25;;;;;;;3.28;2.20;;;19.40;99.90;;;;;;4144107;28;20226;-74
2022/10/26 03:20:27;;;;;;;3.05;2.58;;;19.30;99.90;;;;;;4144526;28;20213;-73
2022/10/26 03:22:29;;;;;;;3.58;2.50;;;19.30;99.90;;;;;;4143857;28;20639;-74
2022/10/26 03:24:31;;;;;;;4.72;2.47;;;19.30;99.90;;;;;;4143930;28;20632;-74
2022/10/26 03:26:35;;;;;;;2.88;2.17;;;19.30;99.90;;;;;;4142118;28;20216;-74
2022/10/26 03:28:37;;;;;;;4.10;2.35;;;19.30;99.90;;;;;;4143854;28;20221;-74
2022/10/26 03:30:39;;;;;;;4.18;2.50;;;19.30;99.90;;;;;;4144046;28;20284;-74
2022/10/26 03:32:42;;;;;;;3.90;2.30;;;19.30;99.90;;;;;;4144017;28;20291;-75
2022/10/26 03:34:44;;;;;;;2.83;2.10;;;19.30;99.90;;;;;;4142753;28;20228;-74
2022/10/26 03:36:46;;;;;;;4.45;2.28;;;19.30;99.90;;;;;;4143916;28;20221;-74
2022/10/26 03:38:49;;;;;;;3.22;2.30;;;19.30;99.90;;;;;;4144011;28;20244;-75
2022/10/26 03:40:51;;;;;;;4.82;2.50;;;19.30;99.90;;;;;;4143757;28;20217;-74
2022/10/26 03:42:55;;;;;;;2.95;2.30;;;19.40;99.90;;;;;;4143776;28;20217;-74
2022/10/26 03:44:57;;;;;;;4.75;2.50;;;19.30;99.90;;;;;;4133830;28;20221;-74
2022/10/26 03:46:59;;;;;;;2.88;2.25;;;19.30;99.90;;;;;;4136332;28;20217;-74
2022/10/26 03:49:05;;;;;;;3.55;2.15;;;19.30;99.90;;;;;;4136816;28;20259;-75
2022/10/26 03:51:07;;;;;;;3.53;2.03;;;19.30;99.90;;;;;;4142231;28;20291;-74
2022/10/26 03:53:09;;;;;;;3.20;2.22;;;19.30;99.90;;;;;;4142368;28;20259;-74
2022/10/26 03:55:12;;;;;;;2.90;1.95;;;19.30;99.90;;;;;;4143917;28;20216;-75
2022/10/26 03:57:14;;;;;;;3.15;2.00;;;19.30;99.90;;;;;;4143426;28;20310;-74
2022/10/26 03:59:17;;;;;;;3.70;2.08;;;19.40;99.90;;;;;;4143836;28;20229;-75
2022/10/26 04:01:20;;;;;;;2.78;2.45;;;19.30;99.90;;;;;;4143079;28;20237;-75
2022/10/26 04:03:22;;;;;;;4.45;2.38;;;19.30;99.90;;;;;;4141935;28;20275;-75
2022/10/26 04:05:26;;;;;;;3.47;2.42;;;19.30;99.90;;;;;;4145776;28;20221;-75
2022/10/26 04:07:29;;;;;;;2.80;2.03;;;19.30;99.90;;;;;;4141410;28;20229;-75
2022/10/26 04:09:31;;;;;;;3.75;2.20;;;19.30;99.90;;;;;;4140408;28;20276;-74
2022/10/26 04:11:33;;;;;;;3.08;1.90;;;19.30;99.90;;;;;;4136920;28;20283;-74
2022/10/26 04:13:36;;;;;;;2.42;2.15;;;19.30;99.90;;;;;;4136172;28;20649;-74
2022/10/26 04:15:39;;;;;;;4.82;2.40;;;19.30;99.90;;;;;;4134960;28;20351;-75
2022/10/26 04:17:41;;;;;;;2.17;1.80;;;19.30;99.90;;;;;;4141364;28;20209;-74
2022/10/26 04:19:44;;;;;;;2.95;2.40;;;19.30;99.90;;;;;;4143602;28;20362;-74
2022/10/26 04:21:46;;;;;;;3.17;2.25;;;19.30;99.90;;;;;;4141367;28;20226;-74
2022/10/26 04:23:48;;;;;;;3.65;2.40;;;19.30;99.90;;;;;;4143508;28;20213;-75
2022/10/26 04:25:51;;;;;;;5.15;2.47;;;19.30;99.90;;;;;;4144308;28;20217;-75
2022/10/26 04:27:53;;;;;;;2.63;1.88;;;19.30;99.90;;;;;;4143895;28;20724;-75
2022/10/26 04:29:55;;;;;;;2.97;2.28;;;19.30;99.90;;;;;;4147367;28;20641;-76
2022/10/26 04:31:59;;;;;;;3.47;2.20;;;19.30;99.90;;;;;;4147671;28;20225;-74
2022/10/26 04:34:01;;;;;;;2.70;1.98;;;19.30;99.90;;;;;;4141239;28;20217;-74
2022/10/26 04:36:04;;;;;;;3.55;2.60;;;19.30;99.90;;;;;;4147862;28;20291;-75
2022/10/26 04:38:07;;;;;;;6.07;2.67;;;19.30;99.90;;;;;;4145878;28;20252;-74
2022/10/26 04:40:10;;;;;;;2.60;2.10;;;19.30;99.90;;;;;;4146195;28;20217;-75
2022/10/26 04:42:12;;;;;;;3.15;2.50;;;19.30;99.90;;;;;;4146733;28;20213;-74
2022/10/26 04:44:15;;;;;;;3.10;2.13;;;19.30;99.90;;;;;;4146326;28;20221;-74
2022/10/26 04:46:17;;;;;;;2.58;2.30;;;19.30;99.90;;;;;;4148073;28;20259;-75
2022/10/26 04:48:20;;;;;;;3.75;2.40;;;19.30;99.90;;;;;;4150441;28;20271;-74
2022/10/26 04:50:23;;;;;;;3.33;2.33;;;19.30;99.90;;;;;;4149398;28;20260;-73
2022/10/26 04:52:25;;;;;;;3.08;1.92;;;19.30;99.90;;;;;;4149134;28;20642;-73
2022/10/26 04:54:27;;;;;;;2.30;2.10;;;19.30;99.90;;;;;;4149395;28;20558;-74
2022/10/26 04:56:30;;;;;;;4.32;2.60;;;19.30;99.90;;;;;;4151180;28;20225;-74
2022/10/26 04:58:32;;;;;;;3.33;2.30;;;19.30;99.90;;;;;;4152560;28;20208;-74
2022/10/26 05:00:35;;;;;;;2.70;2.22;;;19.30;99.90;;;;;;4151224;28;20553;-75
2022/10/26 05:02:37;;;;;;;3.97;2.45;;;19.30;99.90;;;;;;4115878;28;20226;-75
2022/10/26 05:04:41;;;;;;;3.10;2.05;;;19.30;99.90;;;;;;4120095;28;20222;-74
2022/10/26 05:06:43;;;;;;;2.08;1.67;;;19.30;99.90;;;;;;4118287;28;20285;-74
2022/10/26 05:08:45;;;;;;;4.05;2.28;;;19.30;99.90;;;;;;4113723;28;20268;-73
2022/10/26 05:10:49;;;;;;;3.45;2.17;;;19.30;99.90;;;;;;4110994;28;20242;-74
2022/10/26 05:12:52;;;;;;;2.83;2.00;;;19.30;99.90;;;;;;4113587;28;20888;-76
2022/10/26 05:14:57;;;;;;;2.95;2.00;;;19.30;99.90;;;;;;4113091;28;20276;-76
2022/10/26 05:17:00;;;;;;;3.63;2.08;;;19.30;99.90;;;;;;4117672;28;20248;-76
2022/10/26 05:19:02;;;;;;;4.93;2.33;;;19.30;99.90;;;;;;4112595;28;20249;-76
2022/10/26 05:21:06;;;;;;;2.92;2.00;;;19.30;99.90;;;;;;4113306;28;20215;-76
2022/10/26 05:23:12;;;;;;;2.60;2.05;;;19.30;99.90;;;;;;4113630;28;20839;-76
2022/10/26 05:25:15;;;;;;;3.92;2.10;;;19.30;99.90;;;;;;4113118;28;20227;-76
2022/10/26 05:27:17;;;;;;;3.25;2.03;;;19.30;99.90;;;;;;4113623;28;20254;-74
2022/10/26 05:29:19;;;;;;;3.15;1.90;;;19.30;99.90;;;;;;4110742;28;20219;-75
2022/10/26 05:31:22;;;;;;;3.22;2.17;;;19.40;99.90;;;;;;4113935;28;21517;-74
2022/10/26 05:33:24;;;;;;;2.35;2.05;;;19.40;99.90;;;;;;4112538;28;20599;-75
2022/10/26 05:35:27;;;;;;;2.70;2.10;;;19.30;99.90;;;;;;4113298;28;20222;-74
2022/10/26 05:37:30;;;;;;;2.97;2.08;;;19.30;99.90;;;;;;4110543;28;20214;-74
2022/10/26 05:39:33;;;;;;;2.67;2.13;;;19.30;99.90;;;;;;4111478;28;20265;-74
2022/10/26 05:41:35;;;;;;;2.90;2.00;;;19.30;99.90;;;;;;4112183;28;20269;-75
2022/10/26 05:43:37;;;;;;;3.83;2.13;;;19.30;99.90;;;;;;4112623;28;20678;-74
2022/10/26 05:45:39;;;;;;;3.30;2.40;;;19.40;99.90;;;;;;4111055;28;20227;-75
2022/10/26 05:47:44;;;;;;;2.25;1.80;;;19.40;99.90;;;;;;4113038;28;20265;-74
2022/10/26 05:49:47;;;;;;;3.22;2.20;;;19.30;99.90;;;;;;4111884;28;20254;-75
2022/10/26 05:51:50;;;;;;;3.10;2.10;;;19.30;99.90;;;;;;4112014;28;20290;-75
2022/10/26 05:53:54;;;;;;;2.67;1.98;;;19.30;99.90;;;;;;4112623;28;20293;-75
2022/10/26 05:55:57;;;;;;;2.38;1.80;;;19.40;99.90;;;;;;4113244;28;20288;-74
2022/10/26 05:58:00;;;;;;;3.58;2.00;;;19.30;99.90;;;;;;4113211;28;20227;-74
2022/10/26 06:00:03;;;;;;;2.28;1.90;;;19.40;99.90;;;;;;4114570;28;20725;-74
2022/10/26 06:02:15;;;;;;;2.50;1.80;;;19.30;99.90;;;;;;4138642;28;20241;-75
2022/10/26 06:04:30;;;;;;;3.33;1.90;;;19.30;99.90;;;;;;4144133;28;20271;-74
2022/10/26 06:06:39;;;;;;;3.03;1.90;;;19.30;99.90;;;;;;4142045;28;20271;-74
2022/10/26 06:08:42;;;;;;;2.70;2.00;;;19.30;99.90;;;;;;4138787;28;20279;-74
2022/10/26 06:10:47;;;;;;;3.50;1.65;;;19.30;99.90;;;;;;4139562;28;20213;-74
2022/10/26 06:12:49;;;;;;;2.85;1.80;;;19.30;99.90;;;;;;4145130;28;20620;-75
2022/10/26 06:14:52;;;;;;;3.63;1.90;;;19.30;99.90;;;;;;4144195;28;20260;-75
2022/10/26 06:17:15;;;;;;;2.58;1.80;;;19.30;99.90;;;;;;4144488;28;20233;-74
2022/10/26 06:19:32;;;;;;;3.63;2.25;;;19.30;99.90;;;;;;4143842;28;20258;-75
2022/10/26 06:21:51;;;;;;;2.95;1.92;;;19.40;99.90;;;;;;4140846;28;20265;-75
2022/10/26 06:23:58;;;;;;;3.08;1.88;;;19.30;99.90;;;;;;4148552;28;20221;-74
2022/10/26 06:26:09;;;;;;;2.17;1.77;;;19.30;99.90;;;;;;4145728;28;20274;-75
2022/10/26 06:28:23;;;;;;;1.77;1.63;;;19.30;99.90;;;;;;4141244;28;20243;-74
2022/10/26 06:30:25;;;;;;;3.08;1.92;;;19.30;99.90;;;;;;4142467;28;20229;-75
2022/10/26 06:32:28;;;;;;;3.63;2.05;;;19.30;99.90;;;;;;4143022;28;20484;-74
2022/10/26 06:34:34;;;;;;;3.47;2.13;;;19.30;99.90;;;;;;4143025;28;20662;-75
2022/10/26 06:36:38;;;;;;;2.53;1.95;;;19.30;99.90;;;;;;4144035;28;20646;-74
2022/10/26 06:38:43;;;;;;;2.25;1.92;;;19.30;99.90;;;;;;4143856;28;21949;-74
2022/10/26 06:40:47;;;;;;;3.05;1.90;;;19.30;99.90;;;;;;4143217;28;20213;-74
2022/10/26 06:42:52;;;;;;;3.05;2.00;;;19.30;99.90;;;;;;4144243;28;20209;-74
2022/10/26 06:44:54;;;;;;;2.38;1.58;;;19.30;99.90;;;;;;4144630;28;20213;-75
2022/10/26 06:47:04;;;;;;;3.20;1.95;;;19.30;99.90;;;;;;4145007;28;20666;-75
2022/10/26 06:49:16;;;;;;;1.90;1.70;;;19.30;99.90;;;;;;4139860;28;20276;-75
2022/10/26 06:51:19;;;;;;;2.28;1.67;;;19.30;99.90;;;;;;4132417;28;21031;-75
2022/10/26 06:53:27;;;;;;;3.72;2.03;;;19.30;99.90;;;;;;4145112;28;20290;-75
2022/10/26 06:55:36;;;;;;;2.33;1.80;;;19.30;99.90;;;;;;4144576;28;20286;-75
2022/10/26 06:57:40;;;;;;;3.40;1.95;;;19.30;99.90;;;;;;4142347;28;20228;-75
2022/10/26 06:59:47;;;;;;;2.10;1.90;;;19.30;99.90;;;;;;4141699;28;20265;-75
2022/10/26 07:01:49;;;;;;;3.25;1.92;;;19.30;99.90;;;;;;4135366;28;20295;-75
2022/10/26 07:03:52;;;;;;;3.78;1.98;;;19.40;99.90;;;;;;4141972;28;20359;-75
2022/10/26 07:05:54;;;;;;;2.95;2.10;;;19.30;99.90;;;;;;4143791;28;20302;-75
2022/10/26 07:07:56;;;;;;;2.28;1.80;;;19.30;99.90;;;;;;4140551;28;20225;-76
2022/10/26 07:09:59;;;;;;;5.20;1.88;;;19.40;99.90;;;;;;4136943;28;20267;-75
2022/10/26 07:12:01;;;;;;;2.20;1.80;;;19.40;99.90;;;;;;4138567;28;20303;-74
2022/10/26 07:14:03;;;;;;;2.25;1.70;;;19.40;99.90;;;;;;4138539;28;20275;-74
2022/10/26 07:16:07;;;;;;;2.58;1.73;;;19.40;99.90;;;;;;4143530;28;20247;-74
2022/10/26 07:18:10;;;;;;;3.67;1.75;;;19.40;99.90;;;;;;4140300;28;20248;-74
2022/10/26 07:20:13;;;;;;;4.88;2.13;;;19.40;99.90;;;;;;4139373;28;20662;-73
2022/10/26 07:22:15;;;;;;;2.38;1.90;;;19.40;99.90;;;;;;4137971;28;20669;-74
2022/10/26 07:24:18;;;;;;;3.65;2.00;;;19.40;99.90;;;;;;4138665;28;20236;-74
2022/10/26 07:26:20;;;;;;;3.47;1.95;;;19.50;99.90;;;;;;4132249;28;20225;-74
2022/10/26 07:28:22;;;;;;;2.30;1.77;;;19.50;99.90;;;;;;4129181;28;20213;-75
2022/10/26 07:30:25;;;;;;;2.90;1.92;;;19.40;99.90;;;;;;4138406;28;20213;-75
2022/10/26 07:32:29;;;;;;;2.72;1.80;;;19.40;99.90;;;;;;4143630;28;20245;-75
2022/10/26 07:34:31;;;;;;;4.68;1.95;;;19.40;99.90;;;;;;4144564;28;20711;-74
2022/10/26 07:36:35;;;;;;;2.42;1.77;;;19.40;99.90;;;;;;4142102;28;20326;-74
2022/10/26 07:38:38;;;;;;;3.28;2.05;;;19.50;99.90;;;;;;4140326;28;20795;-74
2022/10/26 07:40:40;;;;;;;3.70;1.60;;;19.50;99.90;;;;;;4141180;28;20218;-74
2022/10/26 07:42:42;;;;;;;3.60;1.90;;;19.50;99.90;;;;;;4139283;28;20213;-76
2022/10/26 07:44:45;;;;;;;2.33;1.70;;;19.40;99.90;;;;;;4138484;28;20241;-74
2022/10/26 07:46:47;;;;;;;5.30;2.10;;;19.40;99.90;;;;;;4135044;28;20220;-74
2022/10/26 07:48:51;;;;;;;3.35;2.10;;;19.50;99.90;;;;;;4137262;28;20433;-73
2022/10/26 07:50:53;;;;;;;4.57;1.77;;;19.50;99.90;;;;;;4133168;28;20270;-72
2022/10/26 07:52:55;;;;;;;5.72;2.10;;;19.50;99.90;;;;;;4137687;28;20447;-73
2022/10/26 07:54:58;;;;;;;6.60;2.30;;;19.50;99.90;;;;;;4136868;28;20256;-72
2022/10/26 07:57:00;;;;;;;4.25;1.83;;;19.60;99.90;;;;;;4135604;28;20216;-72
2022/10/26 07:59:03;;;;;;;3.83;1.80;;;19.60;99.90;;;;;;4138157;28;20216;-73
2022/10/26 08:01:07;;;;;;;6.10;1.92;;;19.50;99.90;;;;;;4136933;28;20240;-73
2022/10/26 08:03:09;;;;;;;6.38;2.25;;;19.60;99.90;;;;;;4135266;28;20218;-73
2022/10/26 08:05:12;;;;;;;4.07;2.00;;;19.70;99.90;;;;;;4136387;28;20283;-74
2022/10/26 08:07:15;;;;;;;4.20;2.00;;;19.60;99.90;;;;;;4143548;28;20221;-74
2022/10/26 08:09:17;;;;;;;6.65;2.40;;;19.60;99.90;;;;;;4145249;28;20217;-73
2022/10/26 08:11:20;;;;;;;4.47;1.90;;;19.70;99.90;;;;;;4144668;28;20217;-73
2022/10/26 08:13:22;;;;;;;5.68;2.20;;;19.70;99.90;;;;;;4134768;28;20233;-74
2022/10/26 08:15:24;;;;;;;5.97;2.10;;;19.70;99.90;;;;;;4143569;28;20600;-74
2022/10/26 08:17:28;;;;;;;3.42;1.77;;;19.70;99.90;;;;;;4145382;28;20216;-72
2022/10/26 08:19:30;;;;;;;7.03;2.20;;;19.70;99.90;;;;;;4141018;28;20280;-73
2022/10/26 08:21:34;;;;;;;5.18;2.10;;;19.80;99.90;;;;;;4144266;28;20221;-74
2022/10/26 08:23:36;;;;;;;11.05;2.25;;;19.80;99.90;;;;;;4134370;28;20240;-72
2022/10/26 08:25:38;;;;;;;4.05;1.75;;;19.80;99.90;;;;;;4141806;28;20283;-72
2022/10/26 08:27:40;;;;;;;3.92;2.17;;;19.80;99.90;;;;;;4140504;28;20595;-71
2022/10/26 08:29:43;;;;;;;5.90;2.45;;;19.80;99.90;;;;;;4136512;28;20819;-71
2022/10/26 08:31:46;;;;;;;8.70;2.08;;;19.80;99.90;;;;;;4139045;28;20268;-72
2022/10/26 08:33:49;;;;;;;10.65;2.17;;;19.80;99.90;;;;;;4140087;28;20338;-73
2022/10/26 08:35:56;;;;;;;3.35;1.90;;;19.90;99.90;;;;;;4139459;28;20221;-72
2022/10/26 08:38:00;;;;;;;4.75;1.80;;;19.90;99.90;;;;;;4141482;28;20217;-73
2022/10/26 08:40:03;;;;;;;3.65;2.08;;;19.90;99.90;;;;;;4139688;28;20577;-73
2022/10/26 08:42:13;;;;;;;5.30;1.95;;;20.00;99.90;;;;;;4142394;28;20221;-72
2022/10/26 08:44:24;;;;;;;4.68;2.17;;;20.00;99.90;;;;;;4141144;28;20217;-73
2022/10/26 08:46:34;;;;;;;3.03;1.95;;;20.00;99.90;;;;;;4140966;28;20221;-72
2022/10/26 08:48:40;;;;;;;6.38;2.10;;;19.90;99.90;;;;;;4143164;28;20213;-73
2022/10/26 08:50:49;;;;;;;4.25;1.80;;;20.00;99.90;;;;;;4139005;28;20221;-73
2022/10/26 08:53:00;;;;;;;4.30;2.45;;;20.00;99.90;;;;;;4140693;28;20240;-72
2022/10/26 08:55:11;;;;;;;3.58;2.03;;;20.00;99.90;;;;;;4141032;28;20229;-74
2022/10/26 08:57:21;;;;;;;4.38;2.03;;;20.00;99.90;;;;;;4135701;28;20214;-73
2022/10/26 08:59:30;;;;;;;3.40;1.83;;;20.00;99.90;;;;;;4138556;28;20217;-74
2022/10/26 09:01:34;;;;;;;1.98;1.65;;;20.00;99.90;;;;;;4141305;28;20819;-73
2022/10/26 09:03:36;;;;;;;3.80;1.80;;;20.00;99.90;;;;;;4142322;28;20273;-78
2022/10/26 09:05:58;;;;;;;4.53;2.08;;;20.00;99.90;;;;;;4143874;28;20255;-74
2022/10/26 09:08:09;;;;;;;4.65;2.05;;;20.00;99.90;;;;;;4146407;28;20221;-76
2022/10/26 09:10:24;;;;;;;5.78;1.88;;;20.00;99.90;;;;;;4143648;28;20246;-75
2022/10/26 09:12:39;;;;;;;8.40;2.00;;;20.10;99.90;;;;;;4140485;28;20221;-74
2022/10/26 09:14:50;;;;;;;4.50;1.98;;;20.10;99.90;;;;;;4141486;28;20217;-75
2022/10/26 09:17:03;;;;;;;5.10;1.88;;;20.10;99.90;;;;;;4148861;28;20217;-76
2022/10/26 09:19:23;;;;;;;7.78;1.88;;;20.20;99.90;;;;;;4143659;28;20225;-75
2022/10/26 09:21:34;;;;;;;5.60;2.00;;;20.20;99.90;;;;;;4144679;28;20612;-74
2022/10/26 09:23:48;;;;;;;5.00;1.80;;;20.20;99.90;;;;;;4147803;28;20221;-76
2022/10/26 09:25:59;;;;;;;3.15;1.52;;;20.20;99.90;;;;;;4148694;28;20248;-76
2022/10/26 09:28:03;;;;;;;4.72;1.80;;;20.20;99.90;;;;;;4138438;28;20221;-76
2022/10/26 09:30:16;;;;;;;4.28;2.17;;;20.20;99.90;;;;;;4141207;28;20273;-79
2022/10/26 09:32:20;;;;;;;4.10;1.65;;;20.20;99.90;;;;;;4147881;28;20230;-77
2022/10/26 09:34:31;;;;;;;3.92;2.38;;;20.30;99.90;;;;;;4138351;28;20291;-75
2022/10/26 09:36:35;;;;;;;5.88;1.90;;;20.30;99.90;;;;;;4142101;28;20220;-78
2022/10/26 09:38:43;;;;;;;4.47;2.10;;;20.20;99.90;;;;;;4146504;28;20263;-75
2022/10/26 09:40:54;;;;;;;3.13;1.95;;;20.20;99.90;;;;;;4137243;28;20302;-76
2022/10/26 09:43:01;;;;;;;5.47;1.77;;;20.30;99.90;;;;;;4141052;28;20259;-77
2022/10/26 09:45:11;;;;;;;4.00;1.90;;;20.30;99.90;;;;;;4142657;28;20291;-76
2022/10/26 09:47:21;;;;;;;5.50;2.00;;;20.30;99.90;;;;;;4145250;28;20247;-76
2022/10/26 09:49:30;;;;;;;5.53;2.00;;;20.30;99.90;;;;;;4148071;28;20217;-75
2022/10/26 09:51:33;;;;;;;2.55;1.50;;;20.30;99.90;;;;;;4143088;28;20260;-75
2022/10/26 09:53:35;;;;;;;4.05;1.90;;;20.30;99.90;;;;;;4142786;28;20233;-75
2022/10/26 09:55:43;;;;;;;4.22;1.63;;;20.30;99.90;;;;;;4140178;28;20340;-77
2022/10/26 09:57:50;;;;;;;7.63;2.30;;;20.30;99.90;;;;;;4142138;28;20224;-73
2022/10/26 09:59:54;;;;;;;9.07;2.00;;;20.30;99.90;;;;;;4142760;28;20787;-75
2022/10/26 10:01:56;;;;;;;5.32;2.00;;;20.30;99.90;;;;;;4143906;28;20976;-75
2022/10/26 10:04:19;;;;;;;3.20;1.90;;;20.30;99.90;;;;;;4144920;28;20214;-74
2022/10/26 10:06:21;;;;;;;5.47;2.38;;;20.30;99.90;;;;;;4143840;28;20298;-75
2022/10/26 10:08:26;;;;;;;3.45;2.05;;;20.30;99.90;;;;;;4142873;28;20209;-75
2022/10/26 10:10:28;;;;;;;4.03;1.77;;;20.30;99.90;;;;;;4138645;28;20221;-75
2022/10/26 10:12:31;;;;;;;6.10;1.88;;;20.30;99.90;;;;;;4136597;28;20221;-74
2022/10/26 10:14:42;;;;;;;3.70;1.83;;;20.30;99.90;;;;;;4140270;28;20233;-72
2022/10/26 10:16:51;;;;;;;3.80;1.83;;;20.20;99.90;;;;;;4144088;28;20208;-75
2022/10/26 10:18:55;;;;;;;4.80;2.00;;;20.30;99.90;;;;;;4143574;28;20222;-75
2022/10/26 10:20:59;;;;;;;3.78;1.88;;;20.30;99.90;;;;;;4142460;28;20233;-73
2022/10/26 10:23:03;;;;;;;4.35;1.75;;;20.30;99.90;;;;;;4146700;28;20213;-74
2022/10/26 10:25:23;;;;;;;3.78;1.80;;;20.30;99.90;;;;;;4136632;28;20221;-73
2022/10/26 10:27:27;;;;;;;2.38;1.60;;;20.30;99.90;;;;;;4135521;28;20272;-73
2022/10/26 10:29:31;;;;;;;3.28;1.60;;;20.30;99.90;;;;;;4138692;28;20209;-74
2022/10/26 10:31:34;;;;;;;4.72;1.80;;;20.30;99.90;;;;;;4142703;28;20217;-74
2022/10/26 10:33:39;;;;;;;4.20;1.73;;;20.30;99.90;;;;;;4141174;28;20240;-75
2022/10/26 10:35:50;;;;;;;4.30;1.65;;;20.30;99.90;;;;;;4139084;28;20716;-75
2022/10/26 10:37:53;;;;;;;5.07;1.88;;;20.30;99.90;;;;;;4135594;28;20744;-74
2022/10/26 10:39:58;;;;;;;5.10;1.90;;;20.30;99.90;;;;;;4138682;28;20221;-75
2022/10/26 10:42:02;;;;;;;3.25;1.70;;;20.30;99.90;;;;;;4140895;28;20610;-75
2022/10/26 10:44:13;;;;;;;2.50;1.80;;;20.30;99.90;;;;;;4143514;28;20260;-75
2022/10/26 10:46:21;;;;;;;5.38;1.85;;;20.30;99.90;;;;;;4142142;28;20312;-76
2022/10/26 10:48:27;;;;;;;3.08;1.50;;;20.30;99.90;;;;;;4146524;28;20574;-75
2022/10/26 10:50:30;;;;;;;2.83;1.70;;;20.30;99.90;;;;;;4142506;28;20260;-74
2022/10/26 10:52:35;;;;;;;4.18;1.95;;;20.30;99.90;;;;;;4139056;28;20225;-73
2022/10/26 10:54:39;;;;;;;4.72;2.03;;;20.30;99.90;;;;;;4142614;28;20307;-74